Time;durP1;ratioP1;P1;durP2;ratioP2;P2;SDS_P1;SDS_P2;PMS_P1;PMS_P2;Temp;Humidity;BMP_temperature;BMP_pressure;BME280_temperature;BME280_humidity;BME280_pressure;Samples;Min_cycle;Max_cycle;Signal;HPM_P1;HPM_P2
2021/03/05 00:01:01;;;;;;;6.67;4.53;;;;;;;8.56;77.79;95485.50;5055384;28;20244;-86
2021/03/05 00:03:28;;;;;;;5.27;4.20;;;;;;;8.50;78.43;95488.72;5055490;28;20229;-84
2021/03/05 00:05:54;;;;;;;5.13;4.07;;;;;;;8.48;78.59;95497.53;5054846;28;20233;-83
2021/03/05 00:08:21;;;;;;;4.43;3.70;;;;;;;8.41;79.64;95494.84;5055075;28;20637;-84
2021/03/05 00:10:47;;;;;;;5.30;3.90;;;;;;;8.44;79.35;95499.66;5055676;28;20198;-81
2021/03/05 00:13:14;;;;;;;4.57;4.17;;;;;;;8.50;79.34;95488.72;5055216;28;20193;-84
2021/03/05 00:15:43;;;;;;;5.00;3.90;;;;;;;8.50;79.26;95487.91;5055802;28;20222;-83
2021/03/05 00:18:09;;;;;;;3.93;3.50;;;;;;;8.53;79.84;95487.59;5055508;28;20229;-82
2021/03/05 00:20:41;;;;;;;5.17;3.90;;;;;;;8.53;80.03;95490.97;5055467;28;20225;-84
2021/03/05 00:23:07;;;;;;;4.43;4.03;;;;;;;8.60;78.81;95485.97;5055548;28;20228;-84
2021/03/05 00:25:33;;;;;;;5.03;3.60;;;;;;;8.73;78.50;95496.50;5055932;28;20228;-85
2021/03/05 00:27:59;;;;;;;4.73;4.20;;;;;;;8.75;79.50;95502.25;5043593;28;20732;-81
2021/03/05 00:30:26;;;;;;;4.40;3.80;;;;;;;8.80;77.90;95500.00;5038828;28;20225;-82
2021/03/05 00:32:52;;;;;;;4.00;3.60;;;;;;;8.85;78.29;95497.72;5047942;28;20213;-83
2021/03/05 00:35:19;;;;;;;4.63;4.23;;;;;;;8.81;78.71;95493.91;5055397;28;20233;-82
2021/03/05 00:37:48;;;;;;;5.40;3.93;;;;;;;8.77;79.17;95495.19;5055329;28;20255;-84
2021/03/05 00:40:16;;;;;;;3.83;3.53;;;;;;;8.85;77.72;95495.16;5055350;28;20205;-82
2021/03/05 00:42:44;;;;;;;4.57;3.53;;;;;;;8.84;77.50;95501.28;5038384;28;20233;-85
2021/03/05 00:45:12;;;;;;;5.37;3.90;;;;;;;8.75;78.83;95499.69;5035080;28;20226;-84
2021/03/05 00:47:38;;;;;;;4.23;3.60;;;;;;;8.81;78.60;95508.50;5035771;28;20226;-83
2021/03/05 00:50:05;;;;;;;4.20;3.90;;;;;;;8.89;78.22;95501.56;5038629;28;20249;-85
2021/03/05 00:52:31;;;;;;;4.83;3.90;;;;;;;8.90;78.04;95507.50;5055064;28;20640;-85
2021/03/05 00:54:58;;;;;;;5.23;4.27;;;;;;;8.96;77.86;95509.41;5055256;28;20217;-82
2021/03/05 00:57:24;;;;;;;4.83;3.90;;;;;;;8.94;77.92;95491.59;5055799;28;20259;-82
2021/03/05 00:59:50;;;;;;;5.77;4.17;;;;;;;8.95;78.08;95502.66;5055688;28;20229;-81
2021/03/05 01:02:15;;;;;;;4.87;4.10;;;;;;;8.82;79.01;95503.22;5055213;28;20220;-84
2021/03/05 01:04:41;;;;;;;6.23;3.93;;;;;;;8.85;79.00;95499.50;5054245;28;20900;-82
2021/03/05 01:07:08;;;;;;;5.07;4.10;;;;;;;8.82;79.13;95510.91;5035454;28;20257;-82
2021/03/05 01:09:34;;;;;;;5.10;4.17;;;;;;;8.81;79.23;95503.38;5050248;28;20234;-83
2021/03/05 01:12:01;;;;;;;5.80;4.47;;;;;;;8.88;78.89;95506.84;5055426;28;20731;-83
2021/03/05 01:14:27;;;;;;;4.80;4.40;;;;;;;8.91;78.90;95503.97;5054907;28;20225;-83
2021/03/05 01:16:53;;;;;;;5.03;3.97;;;;;;;8.90;79.02;95505.72;5054842;28;20255;-85
2021/03/05 01:19:19;;;;;;;4.30;3.90;;;;;;;8.89;79.26;95509.25;5055191;28;20209;-83
2021/03/05 01:21:46;;;;;;;4.90;4.40;;;;;;;8.92;78.59;95501.22;5055360;28;20237;-83
2021/03/05 01:24:12;;;;;;;5.17;3.70;;;;;;;8.98;78.82;95492.84;5055397;28;20225;-83
2021/03/05 01:26:40;;;;;;;4.93;3.70;;;;;;;9.03;78.28;95496.69;5055237;28;20225;-82
2021/03/05 01:29:07;;;;;;;5.90;4.20;;;;;;;9.09;78.56;95501.13;5038238;28;20229;-82
2021/03/05 01:31:33;;;;;;;4.40;4.00;;;;;;;9.03;78.30;95492.34;5054522;28;20205;-82
2021/03/05 01:33:59;;;;;;;4.40;4.00;;;;;;;8.97;77.67;95498.97;5054039;28;20312;-82
2021/03/05 01:36:25;;;;;;;4.70;4.30;;;;;;;9.06;78.44;95493.75;5054973;28;20260;-81
2021/03/05 01:38:51;;;;;;;6.53;4.50;;;;;;;9.04;78.74;95496.53;5054365;28;20263;-86
2021/03/05 01:41:17;;;;;;;6.10;4.57;;;;;;;9.12;78.11;95500.81;5049942;28;20224;-83
2021/03/05 01:43:43;;;;;;;5.70;4.60;;;;;;;9.15;77.88;95497.91;5035212;28;20213;-84
2021/03/05 01:46:10;;;;;;;6.27;4.53;;;;;;;9.17;77.36;95491.63;5054884;28;20232;-82
2021/03/05 01:48:37;;;;;;;5.30;4.80;;;;;;;9.21;77.32;95492.91;5053405;28;20228;-83
2021/03/05 01:51:08;;;;;;;5.77;4.50;;;;;;;9.09;78.38;95498.56;5053268;28;20720;-81
2021/03/05 01:53:34;;;;;;;5.47;4.30;;;;;;;9.00;78.17;95506.34;5053687;28;20286;-83
2021/03/05 01:56:02;;;;;;;4.50;4.03;;;;;;;9.06;77.48;95504.84;5053480;28;20263;-82
2021/03/05 01:58:28;;;;;;;5.23;4.27;;;;;;;9.04;78.60;95499.09;5053301;28;20201;-81
2021/03/05 02:00:58;;;;;;;4.80;4.30;;;;;;;9.03;78.02;95504.41;5052411;28;20225;-82
2021/03/05 02:03:30;;;;;;;6.70;3.70;;;;;;;8.98;78.03;95498.00;5053494;28;20232;-84
2021/03/05 02:05:56;;;;;;;4.43;3.70;;;;;;;8.81;79.63;95498.25;5053236;28;20233;-83
2021/03/05 02:08:22;;;;;;;4.97;3.63;;;;;;;8.90;78.13;95507.50;5053438;28;20235;-84
2021/03/05 02:10:48;;;;;;;6.03;4.20;;;;;;;8.92;78.74;95501.22;5052375;28;20201;-83
2021/03/05 02:13:14;;;;;;;4.40;3.90;;;;;;;8.93;79.36;95510.53;5053281;28;20197;-81
2021/03/05 02:15:41;;;;;;;4.30;3.90;;;;;;;8.96;78.01;95510.19;5053582;28;20226;-81
2021/03/05 02:18:14;;;;;;;5.97;3.77;;;;;;;8.94;78.74;95506.19;5056172;28;20314;-84
2021/03/05 02:21:02;;;;;;;5.63;4.40;;;;;;;8.89;79.29;95505.88;5056898;28;20221;-82
2021/03/05 02:23:46;;;;;;;5.00;4.50;;;;;;;8.79;80.54;95502.75;5056715;28;20225;-84
2021/03/05 02:26:52;;;;;;;5.80;4.37;;;;;;;8.81;80.81;95501.59;5057364;28;20237;-82
2021/03/05 02:30:05;;;;;;;5.17;4.43;;;;;;;8.87;80.45;95507.81;5021519;28;20690;-83
2021/03/05 02:32:39;;;;;;;6.53;4.80;;;;;;;8.81;80.86;95499.03;5036351;28;20226;-83
2021/03/05 02:35:08;;;;;;;4.57;4.17;;;;;;;8.80;80.38;95497.44;5036645;28;20250;-83
2021/03/05 02:37:37;;;;;;;5.93;4.57;;;;;;;8.81;80.09;95496.47;5036613;28;20422;-82
2021/03/05 02:40:07;;;;;;;5.70;4.47;;;;;;;8.84;80.33;95497.91;5052794;28;20728;-83
2021/03/05 02:42:41;;;;;;;5.07;4.57;;;;;;;8.85;80.13;95499.50;5041134;28;20257;-83
2021/03/05 02:45:10;;;;;;;4.90;4.40;;;;;;;8.93;79.19;95494.31;5047577;28;20233;-82
2021/03/05 02:47:41;;;;;;;5.17;4.60;;;;;;;8.98;79.78;95485.16;5056667;28;20653;-85
2021/03/05 02:50:08;;;;;;;5.13;4.73;;;;;;;9.00;78.82;95492.69;5056125;28;20228;-82
2021/03/05 02:52:36;;;;;;;5.60;4.40;;;;;;;8.81;80.48;95493.91;5057290;28;20198;-82
2021/03/05 02:55:05;;;;;;;5.63;4.80;;;;;;;8.83;80.32;95496.31;5056994;28;20237;-84
2021/03/05 02:57:35;;;;;;;7.47;4.60;;;;;;;8.88;79.88;95497.38;5057039;28;20244;-82
2021/03/05 03:00:04;;;;;;;4.97;4.47;;;;;;;8.92;79.08;95488.38;5056670;28;20599;-82
2021/03/05 03:02:32;;;;;;;5.90;4.63;;;;;;;8.82;80.10;95497.28;5056645;28;20221;-83
2021/03/05 03:05:00;;;;;;;4.80;4.30;;;;;;;8.77;80.70;95499.53;5055933;28;20233;-83
2021/03/05 03:07:27;;;;;;;7.40;4.90;;;;;;;8.79;80.44;95497.59;5056550;28;20299;-82
2021/03/05 03:09:53;;;;;;;5.23;4.73;;;;;;;8.83;80.00;95498.88;5056311;28;20281;-85
2021/03/05 03:12:21;;;;;;;5.90;4.77;;;;;;;8.85;79.88;95497.72;5056482;28;20221;-84
2021/03/05 03:14:49;;;;;;;6.67;4.60;;;;;;;8.89;79.30;95500.75;5054884;28;20221;-83
2021/03/05 03:17:15;;;;;;;5.60;4.93;;;;;;;8.91;79.09;95502.19;5055690;28;20248;-83
2021/03/05 03:19:45;;;;;;;5.30;4.77;;;;;;;8.91;79.41;95507.31;5055845;28;20206;-83
2021/03/05 03:22:11;;;;;;;5.30;4.80;;;;;;;8.87;79.50;95518.09;5056316;28;20217;-82
2021/03/05 03:24:38;;;;;;;5.90;4.87;;;;;;;8.85;79.67;95505.41;5040318;28;20869;-83
2021/03/05 03:27:04;;;;;;;5.73;5.03;;;;;;;8.91;79.42;95509.88;5035384;28;20225;-83
2021/03/05 03:29:30;;;;;;;5.63;5.07;;;;;;;8.86;79.36;95512.16;5043037;28;20507;-83
2021/03/05 03:31:56;;;;;;;5.67;5.03;;;;;;;8.83;79.83;95519.41;5055300;28;20197;-83
2021/03/05 03:34:22;;;;;;;5.50;4.93;;;;;;;8.72;80.42;95523.13;5056244;28;20202;-84
2021/03/05 03:36:50;;;;;;;7.73;5.10;;;;;;;8.75;80.17;95514.31;5055398;28;20232;-82
2021/03/05 03:39:17;;;;;;;5.73;5.03;;;;;;;8.81;79.83;95508.50;5055349;28;20245;-82
2021/03/05 03:41:43;;;;;;;5.47;4.97;;;;;;;8.76;79.83;95519.28;5048443;28;20221;-83
2021/03/05 03:44:11;;;;;;;5.63;4.53;;;;;;;8.73;80.32;95521.38;5038557;28;20232;-84
2021/03/05 03:46:39;;;;;;;5.10;4.60;;;;;;;8.62;80.15;95527.69;5054816;28;20248;-83
2021/03/05 03:49:10;;;;;;;6.93;5.13;;;;;;;8.59;80.25;95528.81;5051305;28;20255;-82
2021/03/05 03:51:41;;;;;;;6.13;5.53;;;;;;;8.73;79.76;95531.63;5050801;28;20236;-83
2021/03/05 03:54:08;;;;;;;6.37;5.17;;;;;;;8.76;79.09;95529.53;5051349;28;20229;-82
2021/03/05 03:56:37;;;;;;;4.93;4.47;;;;;;;8.70;79.73;95531.97;5050928;28;20241;-82
2021/03/05 03:59:04;;;;;;;6.03;5.10;;;;;;;8.75;79.71;95532.28;5050911;28;20205;-82
2021/03/05 04:01:31;;;;;;;5.70;5.10;;;;;;;8.71;79.71;95525.84;5050501;28;20205;-81
2021/03/05 04:04:00;;;;;;;5.70;5.03;;;;;;;8.69;79.32;95531.16;5050493;28;20826;-81
2021/03/05 04:06:27;;;;;;;6.43;4.63;;;;;;;8.68;79.82;95534.69;5050587;28;20236;-80
2021/03/05 04:08:54;;;;;;;4.97;4.30;;;;;;;8.61;79.59;95531.19;5050751;28;20233;-82
2021/03/05 04:11:22;;;;;;;5.23;4.70;;;;;;;8.56;79.99;95529.13;5050228;28;20252;-81
2021/03/05 04:13:50;;;;;;;5.47;4.50;;;;;;;8.49;79.88;95533.31;5050904;28;20202;-80
2021/03/05 04:16:15;;;;;;;5.60;4.70;;;;;;;8.43;80.26;95536.53;5051130;28;20198;-82
2021/03/05 04:18:42;;;;;;;4.97;4.17;;;;;;;8.43;79.94;95544.25;5050807;28;20232;-81
2021/03/05 04:21:13;;;;;;;5.50;5.00;;;;;;;8.43;80.00;95538.31;5051048;28;20229;-81
2021/03/05 04:23:39;;;;;;;6.33;4.40;;;;;;;8.39;81.13;95545.53;5050901;28;20283;-81
2021/03/05 04:26:05;;;;;;;4.30;3.90;;;;;;;8.34;81.35;95539.28;5051281;28;20692;-81
2021/03/05 04:28:31;;;;;;;5.60;4.60;;;;;;;8.24;81.80;95537.69;5036103;28;20210;-82
2021/03/05 04:30:58;;;;;;;4.73;4.30;;;;;;;8.29;81.60;95544.84;5048686;28;20229;-81
2021/03/05 04:33:26;;;;;;;4.80;4.03;;;;;;;8.38;81.31;95538.78;5051249;28;20224;-81
2021/03/05 04:35:52;;;;;;;6.20;4.40;;;;;;;8.39;81.33;95542.97;5051441;28;20249;-81
2021/03/05 04:38:18;;;;;;;6.23;4.90;;;;;;;8.47;81.02;95552.38;5050682;28;20347;-83
2021/03/05 04:40:46;;;;;;;7.23;4.73;;;;;;;8.40;82.16;95552.25;5050423;28;20213;-81
2021/03/05 04:43:12;;;;;;;4.80;4.30;;;;;;;8.22;83.57;95555.00;5031059;28;20209;-82
2021/03/05 04:45:38;;;;;;;14.77;12.50;;;;;;;8.21;83.43;95552.59;5045212;28;20229;-81
2021/03/05 04:48:06;;;;;;;5.70;4.80;;;;;;;8.19;83.20;95554.50;5050174;28;20321;-85
2021/03/05 04:50:32;;;;;;;5.63;4.70;;;;;;;8.16;83.22;95565.09;5050707;28;20225;-81
2021/03/05 04:52:58;;;;;;;5.93;5.13;;;;;;;8.22;83.18;95559.31;5050577;28;20205;-81
2021/03/05 04:55:24;;;;;;;5.00;4.50;;;;;;;8.19;83.22;95564.78;5050854;28;20201;-81
2021/03/05 04:57:50;;;;;;;5.57;5.07;;;;;;;8.25;82.39;95559.81;5051660;28;20251;-81
2021/03/05 05:00:16;;;;;;;4.60;4.20;;;;;;;8.24;82.45;95553.06;5050578;28;20287;-81
2021/03/05 05:02:42;;;;;;;5.60;4.73;;;;;;;8.36;80.76;95560.44;5050667;28;20712;-81
2021/03/05 05:05:10;;;;;;;4.93;4.20;;;;;;;8.47;80.52;95557.53;5050287;28;20233;-82
2021/03/05 05:07:36;;;;;;;5.73;5.23;;;;;;;8.42;80.92;95562.38;5051176;28;20232;-81
2021/03/05 05:10:03;;;;;;;5.60;5.10;;;;;;;8.45;80.47;95559.47;5050878;28;20241;-82
2021/03/05 05:12:29;;;;;;;5.40;4.90;;;;;;;8.50;80.66;95559.75;5050170;28;20233;-82
2021/03/05 05:14:55;;;;;;;5.70;5.20;;;;;;;8.49;80.66;95566.66;5049893;28;20229;-81
2021/03/05 05:17:21;;;;;;;5.97;5.10;;;;;;;8.51;80.44;95564.72;5050168;28;20770;-82
2021/03/05 05:19:46;;;;;;;6.30;5.70;;;;;;;8.50;80.99;95570.81;5049810;28;20201;-81
2021/03/05 05:22:13;;;;;;;5.83;5.20;;;;;;;8.50;82.22;95570.03;5050780;28;20217;-81
2021/03/05 05:24:39;;;;;;;7.37;6.57;;;;;;;8.58;81.41;95568.25;5049994;28;20679;-82
2021/03/05 05:27:06;;;;;;;7.17;6.47;;;;;;;8.60;82.22;95571.47;5047063;28;20225;-82
2021/03/05 05:29:32;;;;;;;8.07;7.07;;;;;;;8.65;81.80;95569.22;5036809;28;20225;-81
2021/03/05 05:31:58;;;;;;;7.17;6.47;;;;;;;8.71;80.89;95572.88;5050016;28;20203;-83
2021/03/05 05:34:24;;;;;;;8.20;7.40;;;;;;;8.64;82.26;95567.59;5050720;28;20212;-81
2021/03/05 05:36:50;;;;;;;9.30;8.20;;;;;;;8.66;82.48;95568.22;5049585;28;20233;-82
2021/03/05 05:39:16;;;;;;;9.07;8.17;;;;;;;8.59;82.45;95576.75;5049526;28;20334;-81
2021/03/05 05:41:42;;;;;;;10.27;9.03;;;;;;;8.55;82.53;95573.72;5041525;28;20288;-82
2021/03/05 05:44:09;;;;;;;10.27;9.20;;;;;;;8.52;84.09;95576.59;5031937;28;20917;-81
2021/03/05 05:46:35;;;;;;;10.47;9.37;;;;;;;8.55;83.93;95573.72;5050443;28;20236;-82
2021/03/05 05:49:03;;;;;;;10.13;8.80;;;;;;;8.62;82.71;95573.88;5050062;28;20613;-84
2021/03/05 05:51:33;;;;;;;12.70;10.30;;;;;;;8.61;83.77;95578.19;5052654;28;20229;-82
2021/03/05 05:54:03;;;;;;;13.53;10.17;;;;;;;8.52;83.52;95581.72;5054672;28;20225;-80
2021/03/05 05:56:31;;;;;;;12.37;11.07;;;;;;;8.46;84.89;95579.03;5054522;28;20275;-80
2021/03/05 05:58:57;;;;;;;12.50;11.20;;;;;;;8.35;85.26;95580.16;5053982;28;20222;-83
2021/03/05 06:01:23;;;;;;;10.90;9.77;;;;;;;8.41;83.35;95582.09;5054978;28;20692;-82
2021/03/05 06:03:49;;;;;;;10.07;9.07;;;;;;;8.40;83.81;95583.03;5054089;28;20226;-83
2021/03/05 06:06:16;;;;;;;9.50;8.50;;;;;;;8.34;84.18;95593.16;5054227;28;20233;-83
2021/03/05 06:08:42;;;;;;;8.63;7.70;;;;;;;8.37;83.09;95592.81;5054460;28;20233;-81
2021/03/05 06:11:08;;;;;;;7.87;7.07;;;;;;;8.34;83.82;95588.03;5054538;28;20221;-81
2021/03/05 06:13:35;;;;;;;7.53;6.83;;;;;;;8.31;83.08;95583.97;5054789;28;20205;-83
2021/03/05 06:16:15;;;;;;;35.23;28.27;;;;;;;8.35;83.22;95593.00;5054467;28;20767;-82
2021/03/05 06:18:42;;;;;;;14.77;13.17;;;;;;;8.41;82.17;95587.22;5054864;28;20253;-81
2021/03/05 06:21:08;;;;;;;8.13;7.33;;;;;;;8.45;81.11;95596.19;5053458;28;20716;-82
2021/03/05 06:23:36;;;;;;;7.07;6.47;;;;;;;8.41;82.40;95599.25;5054321;28;20244;-82
2021/03/05 06:26:03;;;;;;;7.50;6.47;;;;;;;8.44;81.05;95602.28;5054208;28;20225;-82
2021/03/05 06:28:29;;;;;;;8.00;6.70;;;;;;;8.46;81.28;95602.13;5054548;28;20209;-83
2021/03/05 06:30:56;;;;;;;7.37;6.17;;;;;;;8.28;80.98;95617.66;5052464;28;20233;-83
2021/03/05 06:33:27;;;;;;;6.90;6.20;;;;;;;8.26;81.34;95614.47;5040202;28;20222;-84
2021/03/05 06:35:53;;;;;;;7.23;6.53;;;;;;;8.22;81.37;95618.31;5034063;28;20709;-83
2021/03/05 06:38:40;;;;;;;7.40;6.70;;;;;;;8.16;83.12;95619.75;5038310;28;20236;-82
2021/03/05 06:41:17;;;;;;;7.30;6.57;;;;;;;8.16;82.91;95629.19;5051063;28;20233;-82
2021/03/05 06:43:44;;;;;;;8.03;7.23;;;;;;;8.18;90.31;95632.41;5034393;28;20209;-82
2021/03/05 06:46:27;;;;;;;8.10;7.30;;;;;;;8.29;84.85;95632.88;5032605;28;20635;-81
2021/03/05 06:48:54;;;;;;;7.33;6.63;;;;;;;8.15;80.93;95636.09;5043931;28;20236;-82
2021/03/05 06:51:20;;;;;;;7.17;6.47;;;;;;;8.09;83.63;95636.72;5046564;28;20221;-84
2021/03/05 06:53:47;;;;;;;10.83;9.57;;;;;;;8.07;81.23;95645.56;5053130;28;20411;-83
2021/03/05 06:56:25;;;;;;;17.70;15.70;;;;;;;7.96;80.93;95652.59;5053789;28;20312;-80
2021/03/05 06:58:59;;;;;;;11.20;10.00;;;;;;;8.00;80.68;95647.94;5052724;28;20680;-82
2021/03/05 07:01:25;;;;;;;7.17;6.53;;;;;;;7.93;79.86;95665.72;5051977;28;20206;-82
2021/03/05 07:04:04;;;;;;;7.00;6.40;;;;;;;8.05;80.00;95660.28;5052526;28;20221;-83
2021/03/05 07:06:30;;;;;;;6.70;6.10;;;;;;;7.97;79.32;95659.31;5052690;28;20597;-84
2021/03/05 07:08:56;;;;;;;6.80;6.20;;;;;;;8.00;80.38;95671.03;5043766;28;20233;-82
2021/03/05 07:11:33;;;;;;;6.70;6.10;;;;;;;7.97;80.75;95671.31;5037731;28;20260;-83
2021/03/05 07:13:59;;;;;;;7.67;6.90;;;;;;;7.95;79.93;95680.94;5052511;28;20197;-85
2021/03/05 07:16:26;;;;;;;6.97;6.37;;;;;;;7.87;80.30;95686.88;5053191;28;20301;-83
2021/03/05 07:18:52;;;;;;;7.03;6.37;;;;;;;7.89;79.94;95694.38;5052300;28;20225;-82
2021/03/05 07:21:20;;;;;;;7.67;6.97;;;;;;;7.90;80.35;95690.84;5038127;28;20257;-86
2021/03/05 07:23:47;;;;;;;7.37;6.67;;;;;;;7.92;80.11;95689.75;5041600;28;20694;-83
2021/03/05 07:26:14;;;;;;;147.50;113.80;;;;;;;7.87;80.64;95696.31;5052103;28;20230;-83
2021/03/05 07:28:44;;;;;;;19.90;17.37;;;;;;;7.86;79.69;95699.84;5037250;28;20202;-83
2021/03/05 07:31:14;;;;;;;9.80;8.87;;;;;;;7.86;80.01;95704.97;5033269;28;20234;-82
2021/03/05 07:33:44;;;;;;;7.73;7.03;;;;;;;7.78;79.70;95707.50;5032709;28;20283;-83
2021/03/05 07:36:13;;;;;;;9.07;8.17;;;;;;;7.77;80.70;95711.00;5032002;28;20230;-81
2021/03/05 07:38:40;;;;;;;8.47;7.67;;;;;;;7.91;79.95;95708.66;5032576;28;20275;-84
2021/03/05 07:41:07;;;;;;;9.07;8.13;;;;;;;7.95;79.59;95707.38;5032335;28;20230;-82
2021/03/05 07:43:33;;;;;;;8.57;7.83;;;;;;;8.04;79.26;95713.34;5032751;28;20834;-81
2021/03/05 07:46:00;;;;;;;8.27;7.47;;;;;;;8.10;78.60;95719.56;5031923;28;20317;-83
2021/03/05 07:48:26;;;;;;;7.70;7.00;;;;;;;7.98;78.42;95725.00;5034648;28;20233;-82
2021/03/05 07:50:58;;;;;;;38.57;32.97;;;;;;;7.98;77.74;95726.78;5033612;28;20241;-82
2021/03/05 07:53:24;;;;;;;9.03;8.13;;;;;;;7.82;77.39;95732.66;5034259;28;20260;-82
2021/03/05 07:55:50;;;;;;;4.37;4.00;;;;;;;7.63;76.93;95735.47;5033403;28;20202;-83
2021/03/05 07:58:44;;;;;;;3.87;3.57;;;;;;;7.63;76.03;95741.41;5034311;28;20218;-82
2021/03/05 08:01:10;;;;;;;3.80;3.50;;;;;;;7.65;76.08;95735.34;5033118;28;20233;-83
2021/03/05 08:03:52;;;;;;;3.30;3.10;;;;;;;7.53;76.16;95738.16;5033152;28;20230;-82
2021/03/05 08:06:31;;;;;;;3.47;3.17;;;;;;;7.42;77.02;95750.44;5033048;28;20234;-83
2021/03/05 08:09:07;;;;;;;3.03;2.73;;;;;;;7.48;76.66;95745.50;5033259;28;20275;-84
2021/03/05 08:11:36;;;;;;;3.83;3.00;;;;;;;7.46;77.00;95751.75;5032428;28;20225;-83
2021/03/05 08:14:22;;;;;;;2.83;2.63;;;;;;;7.40;76.08;95753.16;5032889;28;20281;-83
2021/03/05 08:16:48;;;;;;;2.70;2.50;;;;;;;7.34;76.66;95766.56;5032108;28;20249;-82
2021/03/05 08:19:49;;;;;;;3.37;2.77;;;;;;;7.29;78.50;95773.91;5031648;28;20198;-84
2021/03/05 08:22:19;;;;;;;2.50;2.30;;;;;;;7.28;77.72;95778.22;5032068;28;20249;-82
2021/03/05 08:24:46;;;;;;;2.60;2.40;;;;;;;7.32;77.34;95776.16;5032024;28;20256;-85
2021/03/05 08:27:15;;;;;;;2.20;2.10;;;;;;;7.41;77.00;95782.13;5031981;28;20229;-83
2021/03/05 08:30:00;;;;;;;2.50;2.30;;;;;;;7.45;76.95;95784.25;5039544;28;20221;-81
2021/03/05 08:32:59;;;;;;;3.30;3.00;;;;;;;7.51;75.54;95795.63;5053123;28;20268;-83
2021/03/05 08:35:48;;;;;;;5.23;4.77;;;;;;;7.45;74.21;95798.81;5053775;28;20233;-82
2021/03/05 08:38:19;;;;;;;31.00;25.03;;;;;;;7.47;73.59;95799.47;5053372;28;20261;-85
2021/03/05 08:40:51;;;;;;;5.67;5.17;;;;;;;7.41;73.00;95806.00;5053500;28;20232;-82
2021/03/05 08:43:20;;;;;;;4.47;4.07;;;;;;;7.39;72.62;95812.22;5033871;28;20222;-81
2021/03/05 08:45:49;;;;;;;4.43;4.03;;;;;;;7.38;73.08;95811.41;5034119;28;20234;-83
2021/03/05 08:48:26;;;;;;;4.43;4.13;;;;;;;7.28;72.49;95813.28;5034237;28;20651;-82
2021/03/05 08:50:51;;;;;;;4.60;4.20;;;;;;;7.17;73.37;95814.31;5034807;28;20717;-83
2021/03/05 08:53:18;;;;;;;4.37;3.97;;;;;;;7.15;73.91;95820.53;5033752;28;20225;-83
2021/03/05 08:55:45;;;;;;;4.93;4.53;;;;;;;7.06;74.04;95829.13;5035167;28;20198;-85
2021/03/05 08:58:15;;;;;;;4.87;4.47;;;;;;;7.12;73.99;95824.19;5036876;28;20289;-83
2021/03/05 09:00:41;;;;;;;4.80;4.40;;;;;;;7.15;74.05;95831.56;5034243;28;20237;-83
2021/03/05 09:03:10;;;;;;;5.40;4.90;;;;;;;7.14;73.66;95839.41;5034283;28;20222;-82
2021/03/05 09:05:38;;;;;;;4.73;4.33;;;;;;;7.15;74.02;95834.13;5033831;28;20256;-82
2021/03/05 09:08:06;;;;;;;5.10;4.70;;;;;;;7.25;73.68;95836.63;5035727;28;20221;-82
2021/03/05 09:10:42;;;;;;;5.10;4.63;;;;;;;7.22;74.00;95845.41;5035487;28;20198;-84
2021/03/05 09:13:09;;;;;;;5.83;5.33;;;;;;;7.22;73.58;95845.41;5035318;28;20237;-84
2021/03/05 09:15:40;;;;;;;5.30;4.87;;;;;;;7.16;73.78;95851.09;5032033;28;20697;-85
2021/03/05 09:18:07;;;;;;;5.90;5.20;;;;;;;7.09;73.53;95851.88;5026605;28;20226;-80
2021/03/05 09:20:42;;;;;;;5.27;4.77;;;;;;;7.00;74.36;95863.78;5033378;28;20249;-82
2021/03/05 09:23:19;;;;;;;5.50;5.00;;;;;;;6.93;74.72;95866.13;5031826;28;20221;-83
2021/03/05 09:25:51;;;;;;;5.37;4.87;;;;;;;6.95;75.24;95871.09;5034495;28;20284;-85
2021/03/05 09:28:23;;;;;;;5.30;4.90;;;;;;;6.87;74.75;95869.28;5056865;28;20228;-84
2021/03/05 09:30:54;;;;;;;6.00;5.50;;;;;;;6.92;75.08;95874.78;5055942;28;20229;-83
2021/03/05 09:33:28;;;;;;;6.13;5.53;;;;;;;6.94;75.23;95874.59;5056317;28;20225;-85
2021/03/05 09:36:06;;;;;;;41.87;34.30;;;;;;;6.83;74.30;95877.41;5056261;28;20470;-84
2021/03/05 09:38:33;;;;;;;8.63;7.27;;;;;;;6.76;74.91;95884.84;5054495;28;20690;-82
2021/03/05 09:41:11;;;;;;;6.20;5.60;;;;;;;6.83;74.97;95885.88;5055351;28;20201;-86
2021/03/05 09:43:37;;;;;;;6.10;5.60;;;;;;;6.81;75.85;95887.78;5055136;28;20232;-84
2021/03/05 09:46:16;;;;;;;6.10;5.60;;;;;;;6.81;75.72;95886.97;5055654;28;20650;-84
2021/03/05 09:48:42;;;;;;;4.93;4.53;;;;;;;6.82;74.78;95896.25;5054731;28;20720;-84
2021/03/05 09:51:08;;;;;;;5.27;4.77;;;;;;;6.77;75.21;95903.56;5056529;28;20291;-85
2021/03/05 09:53:35;;;;;;;5.17;4.67;;;;;;;6.80;74.85;95913.50;5059271;28;20225;-84
2021/03/05 09:56:03;;;;;;;4.97;4.47;;;;;;;6.85;74.21;95917.25;5056772;28;20834;-85
2021/03/05 09:58:30;;;;;;;4.80;4.40;;;;;;;6.97;73.51;95922.94;5056817;28;20286;-86
2021/03/05 10:00:57;;;;;;;4.97;4.20;;;;;;;6.97;72.00;95922.16;5056085;28;20229;-86
2021/03/05 10:03:24;;;;;;;5.07;4.20;;;;;;;7.01;71.93;95929.41;5057245;28;20258;-81
2021/03/05 10:05:50;;;;;;;7.87;4.40;;;;;;;6.93;71.01;95932.66;5056996;28;20274;-83
2021/03/05 10:08:18;;;;;;;5.63;4.67;;;;;;;6.94;70.75;95931.72;5056295;28;20328;-84
2021/03/05 10:11:08;;;;;;;5.63;4.80;;;;;;;6.85;71.39;95937.72;5057558;28;20235;-85
2021/03/05 10:13:43;;;;;;;8.20;5.93;;;;;;;6.90;70.79;95937.28;5057247;28;20270;-85
2021/03/05 10:16:20;;;;;;;10.03;8.30;;;;;;;6.89;71.10;95946.72;5055979;28;20221;-85
2021/03/05 10:18:48;;;;;;;21.00;16.27;;;;;;;6.95;70.82;95950.44;5055837;28;20654;-84
2021/03/05 10:21:16;;;;;;;10.60;8.83;;;;;;;6.99;70.77;95956.09;5056323;28;20765;-84
2021/03/05 10:23:43;;;;;;;8.43;7.27;;;;;;;6.99;71.27;95954.34;5055968;28;20233;-86
2021/03/05 10:26:13;;;;;;;8.40;7.27;;;;;;;7.07;71.06;95968.97;5055962;28;20225;-83
2021/03/05 10:28:39;;;;;;;8.10;7.07;;;;;;;7.15;70.77;95969.03;5056111;28;20691;-83
2021/03/05 10:31:07;;;;;;;8.60;7.70;;;;;;;7.06;72.10;95972.47;5056456;28;20225;-83
2021/03/05 10:33:40;;;;;;;9.17;7.33;;;;;;;7.09;71.34;95985.00;5055613;28;20789;-85
2021/03/05 10:36:07;;;;;;;6.03;5.43;;;;;;;7.16;77.94;95981.69;5055726;28;20732;-85
2021/03/05 10:38:34;;;;;;;8.40;7.53;;;;;;;7.45;72.45;95975.56;5054802;28;20233;-86
2021/03/05 10:41:00;;;;;;;8.70;7.03;;;;;;;7.39;70.16;95979.50;5053956;28;20201;-84
2021/03/05 10:43:26;;;;;;;9.63;7.80;;;;;;;7.42;70.30;95983.53;5054292;28;20201;-83
2021/03/05 10:45:52;;;;;;;11.33;8.83;;;;;;;7.26;70.58;95985.00;5054933;28;20233;-83
2021/03/05 10:48:18;;;;;;;9.80;8.37;;;;;;;7.20;71.33;95995.81;5055856;28;20229;-82
2021/03/05 10:50:44;;;;;;;10.77;8.67;;;;;;;7.20;70.55;96000.94;5054318;28;20225;-85
2021/03/05 10:53:10;;;;;;;13.10;8.63;;;;;;;7.08;71.32;95999.56;5055811;28;20225;-85
2021/03/05 10:55:36;;;;;;;9.17;8.17;;;;;;;7.08;71.05;96002.13;5056240;28;20288;-83
2021/03/05 10:58:03;;;;;;;11.03;9.27;;;;;;;6.96;70.67;95998.13;5055375;28;20232;-86
2021/03/05 11:00:29;;;;;;;11.67;9.17;;;;;;;6.86;70.13;96005.88;5054033;28;20256;-85
2021/03/05 11:02:55;;;;;;;10.63;9.03;;;;;;;6.84;71.30;96009.53;5053546;28;20236;-84
2021/03/05 11:05:23;;;;;;;11.37;8.87;;;;;;;6.91;71.38;96008.81;5053678;28;20229;-82
2021/03/05 11:07:49;;;;;;;11.10;9.40;;;;;;;6.98;71.59;96005.66;5053915;28;20642;-83
2021/03/05 11:10:15;;;;;;;11.10;9.17;;;;;;;7.11;71.58;96011.28;5054112;28;20760;-81
2021/03/05 11:12:41;;;;;;;9.20;8.23;;;;;;;7.05;71.04;96011.84;5053155;28;20584;-84
2021/03/05 11:15:08;;;;;;;11.53;9.07;;;;;;;7.14;70.91;96014.31;5053536;28;20712;-85
2021/03/05 11:17:34;;;;;;;28.43;23.03;;;;;;;7.25;71.32;96013.31;5052952;28;20241;-82
2021/03/05 11:20:00;;;;;;;23.57;19.90;;;;;;;7.27;70.89;96019.13;5052809;28;20638;-81
2021/03/05 11:22:27;;;;;;;12.47;9.57;;;;;;;7.07;71.00;96020.19;5054137;28;20197;-85
2021/03/05 11:24:53;;;;;;;9.63;8.37;;;;;;;7.03;71.60;96019.66;5053677;28;20226;-83
2021/03/05 11:27:19;;;;;;;9.80;8.23;;;;;;;7.01;72.06;96016.44;5051223;28;20221;-82
2021/03/05 11:29:45;;;;;;;8.50;7.37;;;;;;;6.79;72.44;96016.81;5051272;28;20634;-81
2021/03/05 11:32:11;;;;;;;10.17;8.13;;;;;;;6.81;73.25;96027.72;5051133;28;20233;-82
2021/03/05 11:34:36;;;;;;;8.70;7.30;;;;;;;6.95;72.17;96037.47;5052299;28;20228;-83
2021/03/05 11:37:02;;;;;;;9.70;8.50;;;;;;;7.08;72.15;96032.84;5053153;28;20255;-84
2021/03/05 11:39:29;;;;;;;9.10;8.17;;;;;;;7.15;71.72;96033.06;5053255;28;20240;-85
2021/03/05 11:41:55;;;;;;;8.97;7.53;;;;;;;7.20;71.49;96030.88;5054084;28;20324;-82
2021/03/05 11:44:21;;;;;;;26.30;17.70;;;;;;;7.27;71.22;96032.72;5053148;28;20234;-83
2021/03/05 11:46:49;;;;;;;15.67;12.90;;;;;;;7.47;75.41;96027.47;5052426;28;20232;-82